Time;durP1;ratioP1;P1;durP2;ratioP2;P2;SDS_P1;SDS_P2;PMS_P1;PMS_P2;Temp;Humidity;BMP_temperature;BMP_pressure;BME280_temperature;BME280_humidity;BME280_pressure;Samples;Min_cycle;Max_cycle;Signal;HPM_P1;HPM_P2
2023/08/14 00:02:18;;;;;;;14.48;2.40;;;;;;;16.89;74.31;100017.06;5011177;28;20046;-46
2023/08/14 00:04:45;;;;;;;12.27;2.47;;;;;;;16.87;74.20;100030.63;4993046;28;20041;-46
2023/08/14 00:07:12;;;;;;;9.80;2.28;;;;;;;16.86;74.52;100029.03;5011241;28;20108;-46
2023/08/14 00:09:39;;;;;;;12.30;2.65;;;;;;;16.84;74.60;100021.03;5011920;28;20049;-46
2023/08/14 00:12:06;;;;;;;4.57;2.20;;;;;;;16.82;74.86;100022.66;5011196;28;20129;-48
2023/08/14 00:14:33;;;;;;;6.88;1.75;;;;;;;16.82;75.02;100017.88;5011297;28;20435;-50
2023/08/14 00:17:00;;;;;;;7.20;1.58;;;;;;;16.82;75.25;100019.84;5011201;28;20054;-52
2023/08/14 00:19:28;;;;;;;14.32;3.75;;;;;;;16.79;75.12;100015.88;5014258;28;20064;-45
2023/08/14 00:21:55;;;;;;;10.75;3.30;;;;;;;16.78;75.22;100021.88;5014398;28;20053;-47
2023/08/14 00:24:22;;;;;;;9.27;1.98;;;;;;;16.77;75.23;100015.50;5013585;28;20113;-48
2023/08/14 00:26:48;;;;;;;8.05;2.95;;;;;;;16.75;75.29;100014.31;5002532;28;20127;-44
2023/08/14 00:29:15;;;;;;;6.90;1.58;;;;;;;16.72;75.38;100007.53;4997639;28;20050;-44
2023/08/14 00:31:42;;;;;;;4.32;1.38;;;;;;;16.72;75.51;100001.94;5015219;28;20088;-44
2023/08/14 00:34:09;;;;;;;9.57;2.33;;;;;;;16.68;75.31;100001.13;4997191;28;20045;-44
2023/08/14 00:36:36;;;;;;;9.75;1.85;;;;;;;16.66;75.79;100005.53;5015037;28;20049;-47
2023/08/14 00:39:03;;;;;;;11.10;2.97;;;;;;;16.65;75.93;99995.56;5008254;28;20431;-47
2023/08/14 00:41:30;;;;;;;8.23;2.10;;;;;;;16.60;76.06;99993.19;5013377;28;20048;-46
2023/08/14 00:43:57;;;;;;;6.57;2.20;;;;;;;16.56;75.98;99986.81;5012415;28;20050;-46
2023/08/14 00:46:25;;;;;;;18.65;2.83;;;;;;;16.52;76.24;99983.22;5013809;28;20041;-47
2023/08/14 00:48:52;;;;;;;8.00;1.60;;;;;;;16.47;76.38;99987.19;5014662;28;20084;-43
2023/08/14 00:51:22;;;;;;;7.65;1.88;;;;;;;16.39;76.49;99980.03;4997397;28;20065;-45
2023/08/14 00:53:50;;;;;;;9.55;2.30;;;;;;;16.33;76.46;99979.66;5014424;28;20369;-47
2023/08/14 00:56:18;;;;;;;7.50;2.38;;;;;;;16.30;76.66;99972.09;5013801;28;20045;-47
2023/08/14 00:58:46;;;;;;;6.30;2.03;;;;;;;16.26;76.82;99976.88;5014649;28;20054;-46
2023/08/14 01:01:13;;;;;;;7.80;2.28;;;;;;;16.21;77.03;99971.69;5014756;28;20042;-46
2023/08/14 01:03:42;;;;;;;13.70;2.20;;;;;;;16.16;77.06;99974.91;5014075;28;20133;-46
2023/08/14 01:06:08;;;;;;;8.30;2.65;;;;;;;16.14;77.34;99971.72;5014468;28;20045;-47
2023/08/14 01:08:36;;;;;;;8.35;2.40;;;;;;;16.10;77.42;99970.91;5014027;28;20503;-46
2023/08/14 01:11:12;;;;;;;8.15;1.85;;;;;;;16.03;77.41;99967.34;5014594;28;20080;-47
2023/08/14 01:13:51;;;;;;;9.77;2.10;;;;;;;15.98;77.57;99962.16;5014027;28;20042;-46
2023/08/14 01:16:23;;;;;;;8.63;2.35;;;;;;;15.95;77.76;99971.31;4995668;28;20062;-46
2023/08/14 01:18:53;;;;;;;8.35;1.75;;;;;;;15.91;77.80;99967.75;5014298;28;20046;-47
2023/08/14 01:21:43;;;;;;;10.93;2.78;;;;;;;15.88;77.85;99963.78;5014004;28;20049;-47
2023/08/14 01:24:12;;;;;;;5.95;2.20;;;;;;;15.84;78.10;99960.16;4988918;28;20137;-46
2023/08/14 01:26:39;;;;;;;8.70;1.92;;;;;;;15.80;78.19;99962.97;5014014;28;20491;-50
2023/08/14 01:29:06;;;;;;;6.22;2.05;;;;;;;15.78;78.30;99964.53;5013227;28;20046;-47
2023/08/14 01:31:33;;;;;;;7.30;2.63;;;;;;;15.76;78.50;99961.38;5013133;28;20042;-46
2023/08/14 01:34:00;;;;;;;10.10;4.68;;;;;;;15.74;78.57;99964.56;5013865;28;20051;-46
2023/08/14 01:36:43;;;;;;;24.92;3.72;;;;;;;15.73;78.68;99964.94;4996853;28;20054;-46
2023/08/14 01:39:13;;;;;;;9.02;2.22;;;;;;;15.73;78.82;99951.00;4996445;28;20046;-47
2023/08/14 01:41:49;;;;;;;5.43;1.98;;;;;;;15.73;79.05;99951.00;5013822;28;20038;-47
2023/08/14 01:44:19;;;;;;;5.22;2.10;;;;;;;15.70;79.29;99955.38;5009877;28;20046;-47
2023/08/14 01:46:47;;;;;;;9.43;2.25;;;;;;;15.70;79.28;99957.41;5012347;28;20551;-46
2023/08/14 01:49:17;;;;;;;5.47;2.28;;;;;;;15.71;79.39;99956.19;5012861;28;20064;-48
2023/08/14 01:51:46;;;;;;;11.93;3.25;;;;;;;15.71;79.37;99950.59;5014095;28;20038;-46
2023/08/14 01:54:13;;;;;;;9.43;1.92;;;;;;;15.72;79.75;99955.00;5014185;28;20054;-47
2023/08/14 01:56:40;;;;;;;6.60;2.50;;;;;;;15.73;79.67;99951.78;5013600;28;20050;-47
2023/08/14 01:59:06;;;;;;;9.90;2.28;;;;;;;15.73;79.84;99946.22;5012034;28;20037;-51
2023/08/14 02:01:33;;;;;;;10.25;2.33;;;;;;;15.73;80.09;99942.63;5012452;28;20038;-47
2023/08/14 02:04:00;;;;;;;11.13;2.35;;;;;;;15.71;80.09;99947.81;5011632;28;20120;-47
2023/08/14 02:06:27;;;;;;;9.25;2.63;;;;;;;15.69;80.46;99939.06;5012273;28;20471;-46
2023/08/14 02:08:54;;;;;;;5.88;1.65;;;;;;;15.69;80.50;99933.47;5012156;28;20137;-46
2023/08/14 02:11:21;;;;;;;10.05;2.47;;;;;;;15.67;80.54;99928.28;5013285;28;20104;-48
2023/08/14 02:13:47;;;;;;;5.80;2.78;;;;;;;15.65;80.87;99927.06;5013036;28;20042;-49
2023/08/14 02:16:14;;;;;;;7.95;2.55;;;;;;;15.65;80.95;99921.50;5011319;28;20384;-47
2023/08/14 02:18:42;;;;;;;9.25;1.88;;;;;;;15.64;81.10;99928.28;5013140;28;20060;-47
2023/08/14 02:21:09;;;;;;;9.90;2.38;;;;;;;15.65;81.28;99927.06;5011985;28;20057;-48
2023/08/14 02:23:36;;;;;;;6.28;1.90;;;;;;;15.65;81.32;99927.88;5012899;28;20045;-46
2023/08/14 02:26:03;;;;;;;12.50;3.08;;;;;;;15.64;81.36;99925.50;5012651;28;20046;-46
2023/08/14 02:28:29;;;;;;;8.90;2.33;;;;;;;15.65;81.50;99936.25;5013022;28;20116;-48
2023/08/14 02:30:56;;;;;;;8.93;2.47;;;;;;;15.66;81.77;99923.09;5012438;28;20050;-47
2023/08/14 02:33:23;;;;;;;6.18;1.83;;;;;;;15.65;81.74;99932.66;5011795;28;20104;-46
2023/08/14 02:35:50;;;;;;;7.65;2.35;;;;;;;15.65;81.75;99929.88;5007665;28;20050;-46
2023/08/14 02:38:17;;;;;;;8.02;1.83;;;;;;;15.66;82.07;99925.88;5012165;28;20046;-48
2023/08/14 02:40:43;;;;;;;8.75;2.88;;;;;;;15.67;81.99;99924.72;4992739;28;20057;-47
2023/08/14 02:43:10;;;;;;;10.27;1.85;;;;;;;15.66;81.99;99912.75;4992444;28;20534;-46
2023/08/14 02:45:37;;;;;;;8.73;2.25;;;;;;;15.66;82.16;99928.69;5012408;28;20057;-48
2023/08/14 02:48:04;;;;;;;10.77;1.88;;;;;;;15.64;82.34;99917.13;5012682;28;20507;-48
2023/08/14 02:50:31;;;;;;;9.27;2.03;;;;;;;15.63;82.43;99910.75;5012018;28;20408;-46
2023/08/14 02:52:58;;;;;;;10.70;3.17;;;;;;;15.63;82.40;99916.31;5012641;28;20034;-51
2023/08/14 02:55:25;;;;;;;8.40;2.65;;;;;;;15.64;82.57;99909.56;5011356;28;20038;-46
2023/08/14 02:57:52;;;;;;;11.32;2.15;;;;;;;15.63;82.68;99912.72;5012658;28;20081;-47
2023/08/14 03:03:04;;;;;;;6.97;2.10;;;;;;;15.62;82.93;99905.56;5083025;27;20478;-45
2023/08/14 03:05:31;;;;;;;7.32;2.47;;;;;;;15.60;82.92;99907.94;5069797;28;20098;-46
2023/08/14 03:07:58;;;;;;;7.45;2.15;;;;;;;15.59;83.07;99900.78;5072979;28;20048;-46
2023/08/14 03:10:25;;;;;;;12.02;3.67;;;;;;;15.59;83.05;99896.00;5075232;28;20084;-45
2023/08/14 03:12:52;;;;;;;10.70;3.88;;;;;;;15.58;83.09;99900.00;5066146;28;20037;-46
2023/08/14 03:15:19;;;;;;;8.10;2.50;;;;;;;15.58;83.12;99899.19;5071930;28;20098;-46
2023/08/14 03:17:46;;;;;;;6.95;2.22;;;;;;;15.57;83.27;99889.22;5072464;28;20040;-47
2023/08/14 03:20:13;;;;;;;16.98;2.42;;;;;;;15.58;83.35;99893.59;5078568;28;20045;-48
2023/08/14 03:22:40;;;;;;;8.57;1.83;;;;;;;15.58;83.44;99896.41;5072276;28;20094;-48
2023/08/14 03:25:07;;;;;;;4.65;1.55;;;;;;;15.55;83.42;99888.81;5071381;28;20049;-46
2023/08/14 03:27:34;;;;;;;3.63;1.67;;;;;;;15.53;83.72;99882.84;5066209;28;20064;-47
2023/08/14 03:30:01;;;;;;;6.80;1.95;;;;;;;15.52;83.77;99882.03;5085273;28;20113;-49
2023/08/14 03:32:28;;;;;;;6.65;1.67;;;;;;;15.51;83.80;99883.25;5073344;28;20052;-50
2023/08/14 03:34:55;;;;;;;9.60;1.90;;;;;;;15.53;83.87;99871.69;5077781;28;20135;-46
2023/08/14 03:37:22;;;;;;;7.13;2.00;;;;;;;15.53;83.87;99878.06;5069498;28;20051;-46
2023/08/14 03:39:49;;;;;;;5.97;1.75;;;;;;;15.48;83.85;99872.91;5071492;28;20048;-46
2023/08/14 03:42:18;;;;;;;8.90;2.97;;;;;;;15.47;84.05;99865.72;5068232;28;20070;-46
2023/08/14 03:44:45;;;;;;;9.82;3.20;;;;;;;15.48;84.15;99861.75;5075046;28;20055;-47
2023/08/14 03:47:16;;;;;;;8.38;2.25;;;;;;;15.47;84.13;99862.91;5072808;28;20060;-46
2023/08/14 03:49:43;;;;;;;8.80;2.65;;;;;;;15.45;84.12;99872.84;5071488;28;20043;-45
2023/08/14 03:52:09;;;;;;;8.93;2.13;;;;;;;15.43;84.38;99864.09;5067538;28;20048;-45
2023/08/14 03:54:36;;;;;;;5.50;1.63;;;;;;;15.44;84.39;99871.25;5071701;28;20048;-47
2023/08/14 03:57:03;;;;;;;18.83;4.40;;;;;;;15.43;84.60;99880.84;5069474;28;20521;-46
2023/08/14 03:59:31;;;;;;;9.65;2.58;;;;;;;15.43;84.66;99880.84;5073770;28;20132;-48
2023/08/14 04:01:58;;;;;;;10.48;2.47;;;;;;;15.41;84.66;99874.88;5077578;28;20044;-47
2023/08/14 04:04:24;;;;;;;6.75;1.90;;;;;;;15.40;84.81;99876.06;5093285;28;20051;-46
2023/08/14 04:06:51;;;;;;;11.88;3.58;;;;;;;15.39;85.05;99877.22;5089197;28;20050;-46
2023/08/14 04:09:18;;;;;;;4.15;2.00;;;;;;;15.38;85.20;99868.06;5082092;28;20433;-45
2023/08/14 04:11:45;;;;;;;12.73;2.92;;;;;;;15.38;85.07;99861.72;5087270;28;20113;-47
2023/08/14 04:14:11;;;;;;;6.60;2.72;;;;;;;15.38;85.25;99867.28;5075316;28;20102;-45
2023/08/14 04:16:43;;;;;;;7.63;3.17;;;;;;;15.37;85.33;99860.91;5073341;28;20044;-48
2023/08/14 04:19:15;;;;;;;7.65;2.25;;;;;;;15.37;85.31;99860.09;5073044;28;20538;-45
2023/08/14 04:21:42;;;;;;;10.43;2.75;;;;;;;15.37;85.41;99860.09;5073594;28;20409;-46
2023/08/14 04:24:10;;;;;;;8.80;2.75;;;;;;;15.36;85.58;99867.66;5073758;28;20131;-46
2023/08/14 04:26:37;;;;;;;12.07;2.20;;;;;;;15.37;85.55;99860.91;5055910;28;20458;-47
2023/08/14 04:29:08;;;;;;;4.13;2.50;;;;;;;15.36;85.58;99859.31;5073527;28;20060;-47
2023/08/14 04:31:38;;;;;;;8.70;2.53;;;;;;;15.35;85.52;99859.72;5060342;28;20458;-46
2023/08/14 04:34:07;;;;;;;9.55;2.60;;;;;;;15.35;85.73;99856.94;5073233;28;20045;-46
2023/08/14 04:36:35;;;;;;;12.10;2.45;;;;;;;15.36;85.77;99847.34;5073434;28;20498;-46
2023/08/14 04:39:07;;;;;;;9.35;2.25;;;;;;;15.34;85.87;99850.53;5073147;28;20056;-45
2023/08/14 04:41:34;;;;;;;16.40;2.63;;;;;;;15.32;86.01;99852.94;5072335;28;20036;-47
2023/08/14 04:44:01;;;;;;;8.48;2.35;;;;;;;15.32;86.01;99852.13;5071159;28;20048;-46
2023/08/14 04:46:34;;;;;;;7.70;2.50;;;;;;;15.32;86.07;99843.78;5055190;28;20040;-46
2023/08/14 04:49:21;;;;;;;10.65;2.95;;;;;;;15.30;86.19;99846.97;5072877;28;20068;-46
2023/08/14 04:51:48;;;;;;;12.65;2.60;;;;;;;15.27;86.22;99845.75;5079678;28;20489;-48
2023/08/14 04:54:14;;;;;;;7.93;2.50;;;;;;;15.27;86.23;99844.19;5073018;28;20044;-46
2023/08/14 04:56:41;;;;;;;8.82;2.58;;;;;;;15.23;86.48;99839.41;5073033;28;20045;-47
2023/08/14 04:59:08;;;;;;;14.55;4.15;;;;;;;15.22;86.53;99842.59;5072685;28;20448;-47
2023/08/14 05:01:35;;;;;;;6.82;2.90;;;;;;;15.21;86.61;99844.56;5072658;28;20059;-47
2023/08/14 05:04:03;;;;;;;14.10;5.07;;;;;;;15.20;86.78;99839.38;5072503;28;20102;-47
2023/08/14 05:06:29;;;;;;;12.15;2.53;;;;;;;15.16;86.86;99833.81;5072600;28;20048;-51
2023/08/14 05:08:56;;;;;;;7.85;2.15;;;;;;;15.16;87.01;99844.19;5072802;28;20048;-46
2023/08/14 05:11:25;;;;;;;10.60;2.40;;;;;;;15.16;87.11;99841.38;5071785;28;20123;-49
2023/08/14 05:13:52;;;;;;;11.68;3.42;;;;;;;15.17;87.01;99838.19;5071547;28;20501;-47
2023/08/14 05:16:19;;;;;;;8.05;2.50;;;;;;;15.13;87.03;99829.03;5072565;28;20044;-48
2023/08/14 05:18:46;;;;;;;8.30;2.78;;;;;;;15.07;87.33;99830.63;5054765;28;20135;-46
2023/08/14 05:21:13;;;;;;;7.90;1.90;;;;;;;15.09;87.31;99833.03;5072397;28;20056;-47
2023/08/14 05:23:40;;;;;;;8.05;2.17;;;;;;;15.06;87.37;99822.66;5072315;28;20079;-46
2023/08/14 05:26:07;;;;;;;6.50;2.55;;;;;;;15.07;87.67;99829.81;5071063;28;20049;-47
2023/08/14 05:28:34;;;;;;;5.97;2.03;;;;;;;15.04;87.76;99830.59;5054540;28;20063;-47
2023/08/14 05:31:01;;;;;;;9.90;2.25;;;;;;;15.01;87.76;99826.63;5072544;28;20071;-47
2023/08/14 05:33:27;;;;;;;8.20;2.58;;;;;;;15.03;87.91;99829.84;5072825;28;20055;-46
2023/08/14 05:35:54;;;;;;;9.38;2.30;;;;;;;15.05;87.85;99843.38;5071778;28;20047;-45
2023/08/14 05:38:21;;;;;;;12.55;3.88;;;;;;;15.05;87.88;99838.59;5071946;28;20049;-45
2023/08/14 05:40:48;;;;;;;6.75;2.15;;;;;;;15.07;87.92;99841.78;5071370;28;20051;-46
2023/08/14 05:43:15;;;;;;;7.63;3.00;;;;;;;15.06;87.94;99831.03;5071099;28;20053;-46
2023/08/14 05:45:44;;;;;;;11.48;2.70;;;;;;;15.06;88.08;99837.38;5067574;28;20074;-46
2023/08/14 05:48:13;;;;;;;7.28;2.10;;;;;;;15.05;88.04;99830.22;5054250;28;20406;-45
2023/08/14 05:50:40;;;;;;;7.47;2.38;;;;;;;15.05;88.55;99840.56;5072033;28;20041;-46
2023/08/14 05:53:08;;;;;;;6.10;1.48;;;;;;;15.04;88.29;99837.00;5072037;28;20048;-46
2023/08/14 05:55:38;;;;;;;8.75;1.98;;;;;;;15.03;88.29;99838.19;5071844;28;20040;-46
2023/08/14 05:58:06;;;;;;;7.47;2.35;;;;;;;15.01;88.37;99832.19;5071591;28;20040;-48
2023/08/14 06:00:37;;;;;;;9.65;1.83;;;;;;;14.99;88.51;99834.59;5037199;28;20056;-45
2023/08/14 06:03:05;;;;;;;7.17;2.30;;;;;;;15.02;88.44;99835.78;5071760;28;20052;-47
2023/08/14 06:05:32;;;;;;;9.00;2.25;;;;;;;15.03;88.69;99835.41;5054073;28;20041;-46
2023/08/14 06:08:01;;;;;;;10.75;2.13;;;;;;;15.01;88.58;99829.41;5070882;28;20496;-48
2023/08/14 06:10:28;;;;;;;11.85;2.17;;;;;;;14.99;88.75;99833.78;5071353;28;20044;-46
2023/08/14 06:12:55;;;;;;;3.55;1.60;;;;;;;15.00;88.85;99841.78;5040290;28;20045;-46
2023/08/14 06:15:24;;;;;;;12.23;2.28;;;;;;;15.02;88.85;99839.38;5067801;28;20052;-45
2023/08/14 06:17:52;;;;;;;7.38;2.53;;;;;;;15.03;88.92;99841.00;5069811;28;20110;-46
2023/08/14 06:20:20;;;;;;;4.43;2.13;;;;;;;15.03;88.81;99846.56;5077051;28;20044;-46
2023/08/14 06:22:47;;;;;;;4.78;1.70;;;;;;;15.06;88.94;99842.19;5060850;28;20437;-46
2023/08/14 06:25:15;;;;;;;3.55;1.63;;;;;;;15.08;88.96;99845.38;5071555;28;20044;-46
2023/08/14 06:27:42;;;;;;;6.43;2.85;;;;;;;15.07;89.14;99844.56;5071613;28;20462;-45
2023/08/14 06:30:10;;;;;;;6.30;2.00;;;;;;;15.07;89.22;99852.94;5071261;28;20437;-47
2023/08/14 06:32:38;;;;;;;4.93;1.70;;;;;;;15.11;89.25;99850.94;5071126;28;20048;-46
2023/08/14 06:35:06;;;;;;;8.45;1.90;;;;;;;15.12;89.38;99855.31;5071340;28;20048;-46
2023/08/14 06:37:34;;;;;;;6.07;1.70;;;;;;;15.14;89.38;99852.91;5071548;28;20139;-45
2023/08/14 06:40:03;;;;;;;5.15;1.77;;;;;;;15.19;89.36;99854.53;5070217;28;20090;-47
2023/08/14 06:42:30;;;;;;;6.45;1.40;;;;;;;15.21;89.27;99858.53;5052863;28;20115;-47
2023/08/14 06:44:57;;;;;;;4.30;1.30;;;;;;;15.22;89.20;99867.69;5070906;28;20051;-49
2023/08/14 06:47:24;;;;;;;7.20;1.92;;;;;;;15.29;89.27;99875.25;5070084;28;20048;-46
2023/08/14 06:49:51;;;;;;;4.15;1.40;;;;;;;15.30;89.21;99860.13;5070850;28;20036;-46
2023/08/14 06:52:18;;;;;;;5.65;2.10;;;;;;;15.30;89.33;99866.50;5070738;28;20051;-46
2023/08/14 06:54:46;;;;;;;4.47;1.48;;;;;;;15.35;89.36;99856.94;5071296;28;20053;-50
2023/08/14 06:57:14;;;;;;;7.18;1.50;;;;;;;15.40;89.38;99862.91;5053373;28;20083;-46
2023/08/14 06:59:41;;;;;;;6.03;1.60;;;;;;;15.44;89.32;99866.47;5070964;28;20143;-48
2023/08/14 07:02:11;;;;;;;5.45;2.17;;;;;;;15.50;89.18;99861.31;5036190;28;20414;-46
2023/08/14 07:04:38;;;;;;;5.68;1.63;;;;;;;15.55;88.96;99860.91;5031047;28;20056;-49
2023/08/14 07:07:04;;;;;;;9.82;2.03;;;;;;;15.57;88.87;99869.69;5029491;28;20125;-46
2023/08/14 07:09:31;;;;;;;7.78;1.48;;;;;;;15.55;89.01;99872.88;5030823;28;20038;-46
2023/08/14 07:11:58;;;;;;;4.05;2.10;;;;;;;15.58;89.06;99872.09;5030925;28;20380;-47
2023/08/14 07:14:25;;;;;;;2.95;1.48;;;;;;;15.64;89.03;99881.66;5033629;28;20039;-45
2023/08/14 07:16:57;;;;;;;6.20;1.45;;;;;;;15.67;89.02;99874.47;5032170;28;20099;-45
2023/08/14 07:19:24;;;;;;;4.78;1.63;;;;;;;15.68;88.70;99881.63;5030999;28;20053;-46
2023/08/14 07:21:50;;;;;;;3.08;1.35;;;;;;;15.68;88.39;99881.63;5017524;28;20140;-47
2023/08/14 07:24:18;;;;;;;5.10;1.33;;;;;;;15.67;88.24;99875.25;5027303;28;20056;-48
2023/08/14 07:26:44;;;;;;;6.50;1.75;;;;;;;15.65;88.24;99879.63;5024366;28;20638;-50
2023/08/14 07:29:11;;;;;;;4.40;1.48;;;;;;;15.67;88.30;99880.06;5036757;28;20410;-45
2023/08/14 07:31:38;;;;;;;6.50;2.10;;;;;;;15.68;88.25;99881.63;5034332;28;20068;-46
2023/08/14 07:34:05;;;;;;;9.25;1.88;;;;;;;15.72;88.12;99882.44;5034101;28;20372;-46
2023/08/14 07:36:35;;;;;;;7.65;1.95;;;;;;;15.78;88.00;99886.41;5034727;28;20136;-47
2023/08/14 07:39:03;;;;;;;6.50;1.50;;;;;;;15.84;88.03;99876.44;5029803;28;20399;-46
2023/08/14 07:41:30;;;;;;;6.60;1.98;;;;;;;15.73;87.59;99884.00;5027635;28;20045;-46
2023/08/14 07:43:57;;;;;;;4.75;2.05;;;;;;;15.68;87.80;99879.66;5029062;28;20049;-45
2023/08/14 07:46:24;;;;;;;3.42;1.30;;;;;;;15.71;87.82;99883.63;5029481;28;20096;-48
2023/08/14 07:48:51;;;;;;;6.57;1.50;;;;;;;15.81;87.80;99885.59;5027462;28;20092;-46
2023/08/14 07:51:20;;;;;;;4.82;1.70;;;;;;;15.88;87.75;99874.44;5034013;28;20045;-48
2023/08/14 07:53:47;;;;;;;6.38;1.30;;;;;;;15.91;87.66;99876.44;5032635;28;20404;-46
2023/08/14 07:56:14;;;;;;;7.25;1.67;;;;;;;15.96;87.64;99876.03;5034548;28;20042;-49
2023/08/14 07:58:41;;;;;;;9.48;1.92;;;;;;;15.96;87.42;99876.03;5034271;28;20057;-49
2023/08/14 08:01:08;;;;;;;3.53;1.50;;;;;;;15.99;87.50;99880.00;5042236;28;20060;-45
2023/08/14 08:03:35;;;;;;;5.15;1.83;;;;;;;16.03;87.42;99892.75;5073243;28;20053;-46
2023/08/14 08:06:02;;;;;;;5.22;1.35;;;;;;;16.08;87.65;99883.97;5074290;28;20123;-46
2023/08/14 08:08:29;;;;;;;3.45;1.45;;;;;;;16.10;87.33;99884.34;5074151;28;20048;-45
2023/08/14 08:10:56;;;;;;;7.85;1.13;;;;;;;16.11;87.42;99883.16;5074019;28;20048;-47
2023/08/14 08:13:24;;;;;;;3.47;1.13;;;;;;;16.12;87.25;99875.59;5073930;28;20437;-46
2023/08/14 08:15:54;;;;;;;3.38;1.27;;;;;;;16.15;87.24;99878.34;5074227;28;20044;-45
2023/08/14 08:18:21;;;;;;;3.28;1.00;;;;;;;16.19;87.14;99884.72;5072362;28;20080;-46
2023/08/14 08:20:48;;;;;;;4.45;1.20;;;;;;;16.22;86.87;99889.50;5073661;28;20070;-45
2023/08/14 08:23:15;;;;;;;3.65;1.33;;;;;;;16.26;86.88;99889.47;5073467;28;20095;-46
2023/08/14 08:25:42;;;;;;;5.63;1.08;;;;;;;16.31;86.65;99892.66;5073837;28;20067;-48
2023/08/14 08:28:09;;;;;;;5.15;1.00;;;;;;;16.37;86.58;99899.44;5073661;28;20047;-46
2023/08/14 08:30:37;;;;;;;4.47;2.10;;;;;;;16.43;86.31;99888.63;5056027;28;20049;-45
2023/08/14 08:33:04;;;;;;;5.70;1.15;;;;;;;16.50;86.13;99882.19;5073729;28;20041;-45
2023/08/14 08:35:32;;;;;;;5.68;1.85;;;;;;;16.56;86.12;99894.59;5073435;28;20052;-49
2023/08/14 08:37:59;;;;;;;3.67;1.25;;;;;;;16.60;85.87;99892.59;5073634;28;20062;-47
2023/08/14 08:40:27;;;;;;;5.07;1.17;;;;;;;16.64;85.56;99890.56;5073509;28;20040;-45
2023/08/14 08:42:55;;;;;;;11.55;1.83;;;;;;;16.65;85.50;99892.16;5072939;28;20055;-45
2023/08/14 08:45:25;;;;;;;10.00;3.45;;;;;;;16.69;85.47;99896.53;5054376;28;20083;-46
2023/08/14 08:47:56;;;;;;;7.05;2.00;;;;;;;16.73;85.26;99890.94;5067092;28;20147;-46
2023/08/14 08:50:25;;;;;;;6.05;2.20;;;;;;;16.77;85.14;99891.69;5071995;28;20049;-45
2023/08/14 08:52:53;;;;;;;9.98;1.63;;;;;;;16.82;84.97;99892.06;5073044;28;20094;-46
2023/08/14 08:55:20;;;;;;;8.13;1.40;;;;;;;16.86;84.95;99894.84;5072996;28;20594;-47
2023/08/14 08:57:49;;;;;;;3.63;1.45;;;;;;;16.91;84.72;99886.84;5072808;28;20051;-47
2023/08/14 09:00:16;;;;;;;10.20;2.92;;;;;;;16.99;84.65;99895.97;5073083;28;20063;-47
2023/08/14 09:02:45;;;;;;;6.22;1.30;;;;;;;17.03;84.28;99899.53;5072697;28;20037;-46
2023/08/14 09:05:13;;;;;;;5.72;1.60;;;;;;;17.10;84.24;99899.50;5072604;28;20103;-47
2023/08/14 09:07:43;;;;;;;5.60;1.65;;;;;;;17.19;83.95;99897.03;5072713;28;20478;-47
2023/08/14 09:10:12;;;;;;;5.22;1.77;;;;;;;17.26;83.61;99907.38;5072943;28;20461;-46
2023/08/14 09:12:39;;;;;;;7.20;1.90;;;;;;;17.28;83.22;99905.75;5055346;28;20055;-46
2023/08/14 09:15:09;;;;;;;8.68;1.70;;;;;;;17.33;83.17;99905.31;5073077;28;20036;-47
2023/08/14 09:17:36;;;;;;;5.93;1.27;;;;;;;17.43;82.85;99898.03;5072564;28;20140;-46
2023/08/14 09:20:03;;;;;;;4.75;1.20;;;;;;;17.47;82.50;99901.63;5072874;28;20052;-46
2023/08/14 09:22:41;;;;;;;2.85;1.30;;;;;;;17.56;82.33;99911.16;5072935;28;20036;-46
2023/08/14 09:25:08;;;;;;;2.78;1.45;;;;;;;17.66;82.02;99908.69;5072402;28;20428;-45
2023/08/14 09:27:35;;;;;;;1.65;0.93;;;;;;;17.77;81.91;99906.56;5072193;28;20052;-44
2023/08/14 09:30:06;;;;;;;6.45;1.50;;;;;;;17.88;81.70;99915.69;5072441;28;20044;-46
2023/08/14 09:32:33;;;;;;;5.65;1.08;;;;;;;17.98;81.31;99923.97;5072570;28;20044;-44
2023/08/14 09:35:01;;;;;;;6.40;1.80;;;;;;;18.14;80.42;99923.41;5072382;28;20051;-45
2023/08/14 09:37:28;;;;;;;6.22;1.52;;;;;;;18.32;80.29;99917.63;5072128;28;20050;-45
2023/08/14 09:40:13;;;;;;;6.50;1.58;;;;;;;18.61;79.89;99919.69;5072397;28;20044;-44
2023/08/14 09:42:42;;;;;;;4.78;1.10;;;;;;;18.81;78.54;99920.66;5052786;28;20040;-45
2023/08/14 09:45:12;;;;;;;3.13;1.42;;;;;;;18.98;78.04;99926.44;5071775;28;20037;-43
2023/08/14 09:47:41;;;;;;;4.28;1.08;;;;;;;19.25;77.57;99925.22;5071870;28;20371;-43
2023/08/14 09:50:11;;;;;;;4.07;1.20;;;;;;;19.42;76.66;99926.22;5072162;28;20051;-44
2023/08/14 09:52:38;;;;;;;7.43;1.63;;;;;;;19.69;75.57;99920.56;5071953;28;20040;-43
2023/08/14 09:55:05;;;;;;;4.82;1.33;;;;;;;19.86;74.91;99925.06;5072224;28;20055;-44
2023/08/14 09:57:37;;;;;;;4.47;1.83;;;;;;;19.96;74.23;99924.13;5059331;28;20086;-46
2023/08/14 10:00:08;;;;;;;8.00;2.05;;;;;;;20.08;73.69;99919.88;5071789;28;20477;-42
2023/08/14 10:02:37;;;;;;;2.72;1.13;;;;;;;20.03;73.65;99923.97;5071382;28;20083;-43
2023/08/14 10:05:09;;;;;;;2.40;0.90;;;;;;;20.07;73.02;99923.94;5071525;28;20069;-44
2023/08/14 10:07:38;;;;;;;3.40;1.23;;;;;;;20.35;72.70;99921.41;5071775;28;20102;-43
2023/08/14 10:10:08;;;;;;;2.80;1.88;;;;;;;20.87;71.19;99915.09;5071501;28;20048;-42
2023/08/14 10:13:05;;;;;;;3.80;1.00;;;;;;;21.46;69.57;99924.22;5071273;28;20064;-45
2023/08/14 10:15:37;;;;;;;4.13;1.17;;;;;;;21.78;68.33;99924.25;5070788;28;20101;-43
2023/08/14 10:18:14;;;;;;;6.30;1.20;;;;;;;22.01;68.08;99928.91;5071443;28;20131;-43
2023/08/14 10:20:44;;;;;;;5.30;1.15;;;;;;;22.20;66.53;99930.03;5071638;28;20051;-43
2023/08/14 10:23:16;;;;;;;3.08;1.00;;;;;;;22.14;65.77;99928.97;5071282;28;20139;-44
2023/08/14 10:25:50;;;;;;;3.33;1.02;;;;;;;21.88;65.48;99927.25;5070483;28;20044;-44
2023/08/14 10:28:20;;;;;;;3.60;0.80;;;;;;;21.48;65.77;99923.78;5071293;28;20041;-42
2023/08/14 10:30:47;;;;;;;3.42;1.23;;;;;;;21.41;65.91;99927.56;5071137;28;20512;-44
2023/08/14 10:33:15;;;;;;;2.03;0.90;;;;;;;21.56;65.29;99928.00;5066055;28;20072;-42
2023/08/14 10:35:58;;;;;;;5.15;1.20;;;;;;;21.71;65.11;99921.59;5069119;28;20060;-42
2023/08/14 10:38:42;;;;;;;4.60;0.88;;;;;;;21.80;64.13;99921.78;5071154;28;20049;-43
2023/08/14 10:41:09;;;;;;;2.10;0.80;;;;;;;21.64;63.49;99929.44;5071100;28;20060;-48
2023/08/14 10:43:36;;;;;;;2.00;1.50;;;;;;;21.44;63.43;99928.72;5063044;28;20132;-47
2023/08/14 10:46:13;;;;;;;3.20;0.90;;;;;;;21.25;64.16;99927.56;5071217;28;20078;-43
2023/08/14 10:48:42;;;;;;;3.70;0.82;;;;;;;21.02;63.52;99922.78;5071521;28;20049;-43
2023/08/14 10:51:09;;;;;;;1.50;0.88;;;;;;;20.79;64.04;99924.91;5067225;28;20079;-42
2023/08/14 10:53:37;;;;;;;2.45;0.70;;;;;;;20.64;64.24;99927.25;5070946;28;20135;-43
2023/08/14 10:56:05;;;;;;;2.33;0.63;;;;;;;20.51;63.90;99921.50;5071194;28;20052;-45
2023/08/14 10:58:32;;;;;;;3.35;0.80;;;;;;;20.47;64.04;99929.19;5052987;28;20044;-43
2023/08/14 11:01:10;;;;;;;4.05;0.80;;;;;;;20.45;63.71;99930.84;5070984;28;20066;-42
2023/08/14 11:04:03;;;;;;;4.40;1.10;;;;;;;20.40;64.38;99936.97;5052159;28;20048;-43
2023/08/14 11:07:02;;;;;;;4.28;1.00;;;;;;;20.38;64.61;99928.97;5070955;28;20079;-42
2023/08/14 11:09:33;;;;;;;6.07;1.83;;;;;;;20.43;64.34;99930.50;5062779;28;20063;-43
2023/08/14 11:12:07;;;;;;;3.65;1.25;;;;;;;20.50;63.99;99935.97;5071175;28;20135;-43
2023/08/14 11:14:39;;;;;;;5.72;1.10;;;;;;;20.55;63.90;99932.66;5071110;28;20464;-43
2023/08/14 11:17:07;;;;;;;;;;;;;;;20.53;64.41;99935.09;5053599;28;20132;-43
2023/08/14 11:19:35;;;;;;;2.58;0.80;;;;;;;20.60;64.06;99938.56;5070720;28;20068;-43
2023/08/14 11:22:03;;;;;;;3.05;0.68;;;;;;;20.65;63.73;99932.44;5053158;28;20109;-46
2023/08/14 11:24:32;;;;;;;1.65;1.05;;;;;;;20.64;63.70;99932.88;5073640;28;20056;-42
2023/08/14 11:27:02;;;;;;;;;;;;;;;20.58;64.25;99934.59;5075449;28;20040;-43
2023/08/14 11:29:29;;;;;;;4.32;1.30;;;;;;;20.67;63.76;99940.44;5074723;28;19928;-44
2023/08/14 11:32:00;;;;;;;1.77;0.93;;;;;;;20.72;63.19;99939.94;5074149;28;20071;-44
2023/08/14 11:34:32;;;;;;;4.85;1.20;;;;;;;20.71;63.15;99931.91;5074352;28;20037;-44
2023/08/14 11:37:04;;;;;;;1.17;0.68;;;;;;;20.66;63.15;99938.84;5074045;28;20047;-43
2023/08/14 11:39:35;;;;;;;3.53;0.80;;;;;;;20.67;62.89;99943.25;5073970;28;20068;-44
2023/08/14 11:42:03;;;;;;;1.17;0.57;;;;;;;20.67;62.20;99948.88;5073992;28;20460;-44